sensor_id;sensor_type;location;lat;lon;timestamp;pressure;altitude;pressure_sealevel;temperature;humidity
55517;BME280;41724;51.176;-0.708;2023-03-14T13:13:28;100369.96;;;11.50;40.33
55517;BME280;41724;51.176;-0.708;2023-03-14T13:15:57;100370.33;;;11.38;39.68
55517;BME280;41724;51.176;-0.708;2023-03-14T13:18:29;100374.57;;;9.93;37.80
55517;BME280;41724;51.176;-0.708;2023-03-14T13:21:02;100381.60;;;9.64;39.04
55517;BME280;41724;51.176;-0.708;2023-03-14T13:23:32;100385.78;;;9.79;39.49
55517;BME280;41724;51.176;-0.708;2023-03-14T13:26:01;100385.91;;;9.97;39.34
55517;BME280;41724;51.176;-0.708;2023-03-14T13:28:29;100386.11;;;10.92;39.81
55517;BME280;41724;51.176;-0.708;2023-03-14T13:31:00;100383.90;;;11.19;38.46
55517;BME280;41724;51.176;-0.708;2023-03-14T13:33:28;100390.28;;;12.10;37.05
55517;BME280;41724;51.176;-0.708;2023-03-14T13:35:56;100388.75;;;11.42;38.12
55517;BME280;41724;51.176;-0.708;2023-03-14T13:38:26;100392.85;;;12.28;40.20
55517;BME280;41724;51.176;-0.708;2023-03-14T13:40:56;100388.80;;;14.41;36.18
55517;BME280;41724;51.176;-0.708;2023-03-14T13:43:27;100378.33;;;15.04;33.02
55517;BME280;41724;51.176;-0.708;2023-03-14T13:45:56;100389.98;;;15.74;30.85
55517;BME280;41724;51.176;-0.708;2023-03-14T13:48:29;100382.22;;;15.14;29.34
55517;BME280;41724;51.176;-0.708;2023-03-14T13:51:00;100388.48;;;14.58;31.65
55517;BME280;41724;51.176;-0.708;2023-03-14T13:53:29;100395.09;;;14.37;30.20
55517;BME280;41724;51.176;-0.708;2023-03-14T13:55:56;100384.87;;;16.94;27.51
55517;BME280;41724;51.176;-0.708;2023-03-14T13:58:27;100393.33;;;18.96;24.80
55517;BME280;41724;51.176;-0.708;2023-03-14T14:00:57;100386.83;;;19.98;24.44
55517;BME280;41724;51.176;-0.708;2023-03-14T14:03:25;100387.55;;;21.12;22.68
55517;BME280;41724;51.176;-0.708;2023-03-14T14:05:56;100395.57;;;21.31;21.15
55517;BME280;41724;51.176;-0.708;2023-03-14T14:08:23;100406.41;;;18.41;24.38
55517;BME280;41724;51.176;-0.708;2023-03-14T14:10:53;100417.20;;;18.17;24.15
55517;BME280;41724;51.176;-0.708;2023-03-14T14:13:25;100418.12;;;14.80;26.78
55517;BME280;41724;51.176;-0.708;2023-03-14T14:15:54;100425.40;;;14.70;27.76
55517;BME280;41724;51.176;-0.708;2023-03-14T14:18:24;100424.39;;;16.46;27.62
55517;BME280;41724;51.176;-0.708;2023-03-14T14:20:54;100432.30;;;15.90;25.15
55517;BME280;41724;51.176;-0.708;2023-03-14T14:23:22;100428.30;;;20.76;22.15
55517;BME280;41724;51.176;-0.708;2023-03-14T14:25:53;100429.19;;;22.79;22.09
55517;BME280;41724;51.176;-0.708;2023-03-14T14:28:26;100431.64;;;23.82;18.59
55517;BME280;41724;51.176;-0.708;2023-03-14T14:31:04;100439.35;;;25.34;17.89
55517;BME280;41724;51.176;-0.708;2023-03-14T14:33:41;100441.90;;;24.66;16.82
55517;BME280;41724;51.176;-0.708;2023-03-14T14:36:17;100438.91;;;26.82;16.35
55517;BME280;41724;51.176;-0.708;2023-03-14T14:38:54;100446.64;;;24.45;15.80
55517;BME280;41724;51.176;-0.708;2023-03-14T14:41:30;100452.84;;;26.16;15.87
55517;BME280;41724;51.176;-0.708;2023-03-14T14:43:59;100475.80;;;25.87;13.82
55517;BME280;41724;51.176;-0.708;2023-03-14T14:46:29;100465.92;;;28.01;13.90
55517;BME280;41724;51.176;-0.708;2023-03-14T14:49:03;100467.82;;;25.12;15.43
55517;BME280;41724;51.176;-0.708;2023-03-14T14:51:34;100474.43;;;26.48;15.15
55517;BME280;41724;51.176;-0.708;2023-03-14T14:54:08;100479.34;;;24.32;15.73
55517;BME280;41724;51.176;-0.708;2023-03-14T14:56:37;100473.15;;;27.12;15.11
55517;BME280;41724;51.176;-0.708;2023-03-14T14:59:06;100472.57;;;24.98;15.38
55517;BME280;41724;51.176;-0.708;2023-03-14T15:01:34;100483.96;;;26.76;14.12
55517;BME280;41724;51.176;-0.708;2023-03-14T15:04:04;100477.37;;;28.97;14.48
55517;BME280;41724;51.176;-0.708;2023-03-14T15:06:36;100477.18;;;28.26;14.33
55517;BME280;41724;51.176;-0.708;2023-03-14T15:09:05;100483.33;;;27.89;14.16
55517;BME280;41724;51.176;-0.708;2023-03-14T15:11:32;100481.19;;;27.64;14.15
55517;BME280;41724;51.176;-0.708;2023-03-14T15:13:58;100484.20;;;28.67;14.35
55517;BME280;41724;51.176;-0.708;2023-03-14T15:16:28;100489.78;;;26.31;15.18
55517;BME280;41724;51.176;-0.708;2023-03-14T15:18:59;100491.14;;;27.55;13.87
55517;BME280;41724;51.176;-0.708;2023-03-14T15:21:28;100492.13;;;29.62;13.37
55517;BME280;41724;51.176;-0.708;2023-03-14T15:23:55;100494.01;;;29.20;13.36
55517;BME280;41724;51.176;-0.708;2023-03-14T15:26:25;100495.05;;;27.02;13.26
55517;BME280;41724;51.176;-0.708;2023-03-14T15:28:53;100511.98;;;24.49;14.65
55517;BME280;41724;51.176;-0.708;2023-03-14T15:31:20;100524.10;;;23.82;14.96
55517;BME280;41724;51.176;-0.708;2023-03-14T15:33:48;100514.08;;;22.57;14.90
55517;BME280;41724;51.176;-0.708;2023-03-14T15:36:22;100505.37;;;25.50;14.69
55517;BME280;41724;51.176;-0.708;2023-03-14T15:38:50;100501.62;;;25.59;15.50
55517;BME280;41724;51.176;-0.708;2023-03-14T15:41:17;100490.80;;;26.47;14.59
55517;BME280;41724;51.176;-0.708;2023-03-14T15:43:44;100491.80;;;27.05;13.61
55517;BME280;41724;51.176;-0.708;2023-03-14T15:46:12;100489.13;;;28.57;13.42
55517;BME280;41724;51.176;-0.708;2023-03-14T15:48:40;100489.38;;;26.47;13.19
55517;BME280;41724;51.176;-0.708;2023-03-14T15:51:07;100496.82;;;26.13;15.30
55517;BME280;41724;51.176;-0.708;2023-03-14T15:53:35;100514.91;;;22.41;15.62
55517;BME280;41724;51.176;-0.708;2023-03-14T15:56:01;100515.74;;;19.27;17.68
55517;BME280;41724;51.176;-0.708;2023-03-14T15:58:28;100515.56;;;19.29;18.13
55517;BME280;41724;51.176;-0.708;2023-03-14T16:00:55;100513.47;;;18.67;19.53
55517;BME280;41724;51.176;-0.708;2023-03-14T16:03:22;100525.77;;;17.47;20.03
55517;BME280;41724;51.176;-0.708;2023-03-14T16:05:49;100517.03;;;16.50;21.44
55517;BME280;41724;51.176;-0.708;2023-03-14T16:08:15;100518.53;;;16.89;22.82
55517;BME280;41724;51.176;-0.708;2023-03-14T16:10:43;100519.97;;;16.20;22.24
55517;BME280;41724;51.176;-0.708;2023-03-14T16:13:10;100513.82;;;15.67;23.75
55517;BME280;41724;51.176;-0.708;2023-03-14T16:15:37;100518.12;;;15.32;23.59
55517;BME280;41724;51.176;-0.708;2023-03-14T16:18:04;100524.51;;;15.53;23.51
55517;BME280;41724;51.176;-0.708;2023-03-14T16:20:31;100534.25;;;14.15;24.24
55517;BME280;41724;51.176;-0.708;2023-03-14T16:22:58;100537.04;;;13.77;24.94
55517;BME280;41724;51.176;-0.708;2023-03-14T16:25:25;100540.43;;;13.73;25.20
55517;BME280;41724;51.176;-0.708;2023-03-14T16:27:52;100536.64;;;13.40;25.74
55517;BME280;41724;51.176;-0.708;2023-03-14T16:30:19;100536.17;;;13.43;26.44
55517;BME280;41724;51.176;-0.708;2023-03-14T16:32:46;100539.44;;;14.15;26.20
55517;BME280;41724;51.176;-0.708;2023-03-14T16:35:13;100532.23;;;14.37;25.25
55517;BME280;41724;51.176;-0.708;2023-03-14T16:37:40;100537.04;;;15.28;26.10
55517;BME280;41724;51.176;-0.708;2023-03-14T16:40:08;100548.80;;;14.32;25.87
55517;BME280;41724;51.176;-0.708;2023-03-14T16:42:35;100542.31;;;14.84;25.37
55517;BME280;41724;51.176;-0.708;2023-03-14T16:45:03;100545.29;;;14.67;25.87
55517;BME280;41724;51.176;-0.708;2023-03-14T16:47:31;100549.05;;;13.32;26.11
55517;BME280;41724;51.176;-0.708;2023-03-14T16:49:58;100555.87;;;13.56;26.47
55517;BME280;41724;51.176;-0.708;2023-03-14T16:52:25;100549.40;;;13.02;27.84
55517;BME280;41724;51.176;-0.708;2023-03-14T16:54:52;100550.59;;;12.05;27.92
55517;BME280;41724;51.176;-0.708;2023-03-14T16:57:19;100562.15;;;11.57;28.18
55517;BME280;41724;51.176;-0.708;2023-03-14T16:59:46;100558.40;;;12.22;29.20
55517;BME280;41724;51.176;-0.708;2023-03-14T17:02:13;100557.39;;;12.88;29.17
55517;BME280;41724;51.176;-0.708;2023-03-14T17:04:40;100559.85;;;11.95;29.20
55517;BME280;41724;51.176;-0.708;2023-03-14T17:07:07;100561.61;;;12.37;29.30
55517;BME280;41724;51.176;-0.708;2023-03-14T17:09:34;100571.98;;;12.90;29.49
55517;BME280;41724;51.176;-0.708;2023-03-14T17:12:02;100577.86;;;12.62;29.91
55517;BME280;41724;51.176;-0.708;2023-03-14T17:14:29;100579.92;;;12.50;29.42
55517;BME280;41724;51.176;-0.708;2023-03-14T17:16:56;100588.86;;;12.57;30.32
55517;BME280;41724;51.176;-0.708;2023-03-14T17:19:23;100594.71;;;13.31;29.64
55517;BME280;41724;51.176;-0.708;2023-03-14T17:21:50;100594.71;;;13.03;28.50
55517;BME280;41724;51.176;-0.708;2023-03-14T17:24:17;100597.22;;;13.33;29.15
55517;BME280;41724;51.176;-0.708;2023-03-14T17:26:44;100596.58;;;13.45;29.37
55517;BME280;41724;51.176;-0.708;2023-03-14T17:29:11;100602.77;;;13.99;28.59
55517;BME280;41724;51.176;-0.708;2023-03-14T17:31:38;100607.75;;;13.93;29.36
55517;BME280;41724;51.176;-0.708;2023-03-14T17:34:06;100618.09;;;14.26;29.25
55517;BME280;41724;51.176;-0.708;2023-03-14T17:36:33;100618.94;;;14.61;28.34
55517;BME280;41724;51.176;-0.708;2023-03-14T17:39:00;100620.38;;;14.48;28.97
55517;BME280;41724;51.176;-0.708;2023-03-14T17:41:27;100625.09;;;14.33;28.00
55517;BME280;41724;51.176;-0.708;2023-03-14T17:43:54;100626.56;;;13.98;27.30
55517;BME280;41724;51.176;-0.708;2023-03-14T17:46:22;100624.38;;;13.79;28.74
55517;BME280;41724;51.176;-0.708;2023-03-14T17:48:48;100623.27;;;13.70;28.95
55517;BME280;41724;51.176;-0.708;2023-03-14T17:51:16;100624.94;;;14.12;30.62
55517;BME280;41724;51.176;-0.708;2023-03-14T17:53:43;100625.21;;;14.04;30.09
55517;BME280;41724;51.176;-0.708;2023-03-14T17:56:10;100634.93;;;14.10;30.28
55517;BME280;41724;51.176;-0.708;2023-03-14T17:58:37;100639.07;;;13.95;30.56
55517;BME280;41724;51.176;-0.708;2023-03-14T18:01:09;100646.23;;;13.81;30.95
55517;BME280;41724;51.176;-0.708;2023-03-14T18:03:36;100648.07;;;13.87;31.15
55517;BME280;41724;51.176;-0.708;2023-03-14T18:06:04;100655.32;;;13.30;31.57
55517;BME280;41724;51.176;-0.708;2023-03-14T18:08:32;100656.83;;;13.24;31.22
55517;BME280;41724;51.176;-0.708;2023-03-14T18:10:59;100660.18;;;13.01;31.39
55517;BME280;41724;51.176;-0.708;2023-03-14T18:13:26;100660.51;;;13.23;32.79
55517;BME280;41724;51.176;-0.708;2023-03-14T18:15:53;100667.98;;;12.87;33.49
55517;BME280;41724;51.176;-0.708;2023-03-14T18:18:21;100672.95;;;11.35;32.23
55517;BME280;41724;51.176;-0.708;2023-03-14T18:20:50;100675.41;;;11.18;33.56
55517;BME280;41724;51.176;-0.708;2023-03-14T18:23:18;100679.84;;;11.03;35.50
55517;BME280;41724;51.176;-0.708;2023-03-14T18:25:45;100692.08;;;10.91;34.01
55517;BME280;41724;51.176;-0.708;2023-03-14T18:28:12;100694.36;;;11.21;35.11
55517;BME280;41724;51.176;-0.708;2023-03-14T18:30:39;100695.08;;;11.00;35.71
55517;BME280;41724;51.176;-0.708;2023-03-14T18:33:06;100693.75;;;10.87;36.36
55517;BME280;41724;51.176;-0.708;2023-03-14T18:35:35;100692.42;;;10.93;35.65
55517;BME280;41724;51.176;-0.708;2023-03-14T18:38:02;100697.08;;;8.89;37.73
55517;BME280;41724;51.176;-0.708;2023-03-14T18:40:30;100697.81;;;9.46;37.41
55517;BME280;41724;51.176;-0.708;2023-03-14T18:42:57;100700.26;;;9.60;37.11
55517;BME280;41724;51.176;-0.708;2023-03-14T18:45:24;100705.25;;;7.93;37.29
55517;BME280;41724;51.176;-0.708;2023-03-14T18:47:52;100713.12;;;7.95;36.76
55517;BME280;41724;51.176;-0.708;2023-03-14T18:50:19;100710.92;;;7.70;37.70
55517;BME280;41724;51.176;-0.708;2023-03-14T18:52:46;100713.09;;;7.97;36.22
55517;BME280;41724;51.176;-0.708;2023-03-14T18:55:13;100721.78;;;7.90;36.37
55517;BME280;41724;51.176;-0.708;2023-03-14T18:57:40;100726.28;;;7.39;36.24
55517;BME280;41724;51.176;-0.708;2023-03-14T19:00:08;100726.61;;;7.98;35.59
55517;BME280;41724;51.176;-0.708;2023-03-14T19:02:35;100730.64;;;7.89;35.75
55517;BME280;41724;51.176;-0.708;2023-03-14T19:05:02;100738.38;;;7.24;35.34
55517;BME280;41724;51.176;-0.708;2023-03-14T19:07:29;100738.84;;;7.72;35.77
55517;BME280;41724;51.176;-0.708;2023-03-14T19:09:57;100734.35;;;8.24;35.42
55517;BME280;41724;51.176;-0.708;2023-03-14T19:12:26;100740.12;;;7.81;36.42
55517;BME280;41724;51.176;-0.708;2023-03-14T19:14:53;100742.57;;;7.42;36.78
55517;BME280;41724;51.176;-0.708;2023-03-14T19:17:21;100741.11;;;7.92;37.39
55517;BME280;41724;51.176;-0.708;2023-03-14T19:19:48;100742.80;;;8.11;35.11
55517;BME280;41724;51.176;-0.708;2023-03-14T19:22:15;100744.91;;;8.41;34.61
55517;BME280;41724;51.176;-0.708;2023-03-14T19:24:45;100748.00;;;9.11;35.12
55517;BME280;41724;51.176;-0.708;2023-03-14T19:27:12;100750.38;;;9.42;34.41
55517;BME280;41724;51.176;-0.708;2023-03-14T19:29:39;100761.37;;;8.37;34.80
55517;BME280;41724;51.176;-0.708;2023-03-14T19:32:07;100761.64;;;7.90;34.74
55517;BME280;41724;51.176;-0.708;2023-03-14T19:34:34;100760.35;;;8.02;35.32
55517;BME280;41724;51.176;-0.708;2023-03-14T19:37:01;100763.30;;;7.68;36.03
55517;BME280;41724;51.176;-0.708;2023-03-14T19:39:29;100765.45;;;7.93;36.16
55517;BME280;41724;51.176;-0.708;2023-03-14T19:41:56;100760.45;;;7.63;36.63
55517;BME280;41724;51.176;-0.708;2023-03-14T19:44:24;100764.26;;;6.99;37.76
55517;BME280;41724;51.176;-0.708;2023-03-14T19:46:51;100771.84;;;7.10;38.31
55517;BME280;41724;51.176;-0.708;2023-03-14T19:49:19;100773.49;;;7.54;37.90
55517;BME280;41724;51.176;-0.708;2023-03-14T19:51:47;100775.65;;;7.72;38.34
55517;BME280;41724;51.176;-0.708;2023-03-14T19:54:14;100781.42;;;7.60;38.19
55517;BME280;41724;51.176;-0.708;2023-03-14T19:56:41;100788.73;;;6.96;38.64
55517;BME280;41724;51.176;-0.708;2023-03-14T19:59:08;100786.77;;;6.99;39.25
55517;BME280;41724;51.176;-0.708;2023-03-14T20:01:35;100784.83;;;8.09;38.50
55517;BME280;41724;51.176;-0.708;2023-03-14T20:04:03;100783.89;;;7.64;38.45
55517;BME280;41724;51.176;-0.708;2023-03-14T20:06:31;100793.71;;;6.73;39.35
55517;BME280;41724;51.176;-0.708;2023-03-14T20:08:59;100792.34;;;7.69;39.25
55517;BME280;41724;51.176;-0.708;2023-03-14T20:11:26;100791.81;;;7.94;38.89
55517;BME280;41724;51.176;-0.708;2023-03-14T20:13:53;100801.09;;;7.21;40.12
55517;BME280;41724;51.176;-0.708;2023-03-14T20:16:20;100808.41;;;7.08;41.60
55517;BME280;41724;51.176;-0.708;2023-03-14T20:18:48;100815.75;;;7.20;42.00
55517;BME280;41724;51.176;-0.708;2023-03-14T20:21:15;100818.10;;;6.90;41.68
55517;BME280;41724;51.176;-0.708;2023-03-14T20:23:42;100821.53;;;6.35;43.68
55517;BME280;41724;51.176;-0.708;2023-03-14T20:26:09;100808.05;;;6.47;43.42
55517;BME280;41724;51.176;-0.708;2023-03-14T20:28:36;100816.36;;;6.92;43.06
55517;BME280;41724;51.176;-0.708;2023-03-14T20:31:05;100815.56;;;6.89;45.09
55517;BME280;41724;51.176;-0.708;2023-03-14T20:33:33;100808.85;;;7.14;43.49
55517;BME280;41724;51.176;-0.708;2023-03-14T20:36:00;100808.31;;;6.99;44.17
55517;BME280;41724;51.176;-0.708;2023-03-14T20:38:28;100822.04;;;7.53;44.65
55517;BME280;41724;51.176;-0.708;2023-03-14T20:40:55;100829.46;;;7.89;43.53
55517;BME280;41724;51.176;-0.708;2023-03-14T20:43:22;100830.48;;;6.58;46.67
55517;BME280;41724;51.176;-0.708;2023-03-14T20:45:52;100833.80;;;6.44;47.34
55517;BME280;41724;51.176;-0.708;2023-03-14T20:48:20;100845.37;;;6.10;49.43
55517;BME280;41724;51.176;-0.708;2023-03-14T20:50:48;100839.57;;;6.14;49.51
55517;BME280;41724;51.176;-0.708;2023-03-14T20:53:15;100837.62;;;6.75;48.79
55517;BME280;41724;51.176;-0.708;2023-03-14T20:55:41;100845.64;;;6.70;48.92
55517;BME280;41724;51.176;-0.708;2023-03-14T20:58:09;100848.48;;;6.15;50.87
55517;BME280;41724;51.176;-0.708;2023-03-14T21:00:36;100853.17;;;6.27;51.53
55517;BME280;41724;51.176;-0.708;2023-03-14T21:03:03;100860.29;;;6.67;50.82
55517;BME280;41724;51.176;-0.708;2023-03-14T21:05:31;100851.55;;;5.40;54.57
55517;BME280;41724;51.176;-0.708;2023-03-14T21:07:58;100869.75;;;5.92;55.72
55517;BME280;41724;51.176;-0.708;2023-03-14T21:10:25;100863.87;;;5.66;55.80
55517;BME280;41724;51.176;-0.708;2023-03-14T21:12:52;100866.66;;;6.23;55.68
55517;BME280;41724;51.176;-0.708;2023-03-14T21:15:19;100874.99;;;6.68;55.01
55517;BME280;41724;51.176;-0.708;2023-03-14T21:17:46;100875.70;;;5.24;59.31
55517;BME280;41724;51.176;-0.708;2023-03-14T21:20:13;100885.06;;;5.18;60.16
55517;BME280;41724;51.176;-0.708;2023-03-14T21:22:40;100880.87;;;6.34;57.46
55517;BME280;41724;51.176;-0.708;2023-03-14T21:25:08;100879.61;;;6.48;58.37
55517;BME280;41724;51.176;-0.708;2023-03-14T21:27:37;100893.42;;;5.76;59.18
55517;BME280;41724;51.176;-0.708;2023-03-14T21:30:05;100894.90;;;5.62;59.60
55517;BME280;41724;51.176;-0.708;2023-03-14T21:32:33;100886.17;;;6.06;59.50
55517;BME280;41724;51.176;-0.708;2023-03-14T21:35:00;100889.27;;;6.71;58.90
55517;BME280;41724;51.176;-0.708;2023-03-14T21:37:27;100889.05;;;6.10;60.15
55517;BME280;41724;51.176;-0.708;2023-03-14T21:39:54;100896.23;;;6.01;60.23
55517;BME280;41724;51.176;-0.708;2023-03-14T21:42:22;100900.31;;;6.18;61.13
55517;BME280;41724;51.176;-0.708;2023-03-14T21:44:49;100899.88;;;6.92;58.42
55517;BME280;41724;51.176;-0.708;2023-03-14T21:47:20;100903.74;;;7.47;57.60
55517;BME280;41724;51.176;-0.708;2023-03-14T21:49:47;100907.29;;;7.23;59.85
55517;BME280;41724;51.176;-0.708;2023-03-14T21:52:15;100903.35;;;6.82;58.85
55517;BME280;41724;51.176;-0.708;2023-03-14T21:54:42;100920.52;;;5.26;62.82
55517;BME280;41724;51.176;-0.708;2023-03-14T21:57:10;100916.96;;;5.70;62.42
55517;BME280;41724;51.176;-0.708;2023-03-14T21:59:37;100912.34;;;5.69;62.85
55517;BME280;41724;51.176;-0.708;2023-03-14T22:02:09;100919.08;;;5.63;63.32
55517;BME280;41724;51.176;-0.708;2023-03-14T22:04:37;100918.10;;;6.14;62.19
55517;BME280;41724;51.176;-0.708;2023-03-14T22:07:07;100921.38;;;7.01;59.40
55517;BME280;41724;51.176;-0.708;2023-03-14T22:09:37;100921.05;;;7.41;58.09
55517;BME280;41724;51.176;-0.708;2023-03-14T22:12:05;100922.24;;;6.56;58.49
55517;BME280;41724;51.176;-0.708;2023-03-14T22:14:32;100923.93;;;7.43;58.07
55517;BME280;41724;51.176;-0.708;2023-03-14T22:16:59;100924.56;;;7.16;57.01
55517;BME280;41724;51.176;-0.708;2023-03-14T22:19:26;100929.65;;;6.66;58.81
55517;BME280;41724;51.176;-0.708;2023-03-14T22:21:53;100927.14;;;6.95;57.69
55517;BME280;41724;51.176;-0.708;2023-03-14T22:24:21;100928.33;;;7.48;56.97
55517;BME280;41724;51.176;-0.708;2023-03-14T22:26:50;100928.33;;;6.97;57.29
55517;BME280;41724;51.176;-0.708;2023-03-14T22:29:17;100925.62;;;7.47;56.33
55517;BME280;41724;51.176;-0.708;2023-03-14T22:31:44;100924.23;;;7.52;56.90
55517;BME280;41724;51.176;-0.708;2023-03-14T22:34:12;100923.70;;;6.84;57.44
55517;BME280;41724;51.176;-0.708;2023-03-14T22:36:39;100922.89;;;6.53;58.27
55517;BME280;41724;51.176;-0.708;2023-03-14T22:39:06;100931.46;;;6.73;58.13
55517;BME280;41724;51.176;-0.708;2023-03-14T22:41:34;100932.64;;;7.01;57.97
55517;BME280;41724;51.176;-0.708;2023-03-14T22:44:02;100934.01;;;7.25;57.55
55517;BME280;41724;51.176;-0.708;2023-03-14T22:46:29;100934.31;;;6.55;58.69
55517;BME280;41724;51.176;-0.708;2023-03-14T22:48:56;100926.41;;;7.19;57.63
55517;BME280;41724;51.176;-0.708;2023-03-14T22:51:23;100931.29;;;7.41;56.64
55517;BME280;41724;51.176;-0.708;2023-03-14T22:53:50;100928.11;;;6.61;57.97
55517;BME280;41724;51.176;-0.708;2023-03-14T22:56:18;100930.62;;;7.19;57.20
55517;BME280;41724;51.176;-0.708;2023-03-14T22:58:45;100931.48;;;6.88;57.93
55517;BME280;41724;51.176;-0.708;2023-03-14T23:01:13;100933.49;;;7.00;57.38
55517;BME280;41724;51.176;-0.708;2023-03-14T23:03:40;100936.51;;;7.55;56.52
55517;BME280;41724;51.176;-0.708;2023-03-14T23:06:08;100937.23;;;7.50;55.90
55517;BME280;41724;51.176;-0.708;2023-03-14T23:08:35;100939.58;;;7.66;55.83
55517;BME280;41724;51.176;-0.708;2023-03-14T23:11:04;100941.33;;;7.86;55.52
55517;BME280;41724;51.176;-0.708;2023-03-14T23:13:31;100944.49;;;7.78;55.03
55517;BME280;41724;51.176;-0.708;2023-03-14T23:15:58;100946.59;;;7.62;55.03
55517;BME280;41724;51.176;-0.708;2023-03-14T23:18:26;100945.80;;;8.18;54.47
55517;BME280;41724;51.176;-0.708;2023-03-14T23:21:05;100948.71;;;8.05;54.22
55517;BME280;41724;51.176;-0.708;2023-03-14T23:23:32;100948.82;;;7.57;54.98
55517;BME280;41724;51.176;-0.708;2023-03-14T23:26:00;100949.18;;;7.46;55.70
55517;BME280;41724;51.176;-0.708;2023-03-14T23:28:27;100949.86;;;7.49;55.56
55517;BME280;41724;51.176;-0.708;2023-03-14T23:30:55;100955.09;;;6.73;57.84
55517;BME280;41724;51.176;-0.708;2023-03-14T23:33:24;100953.87;;;6.83;57.34
55517;BME280;41724;51.176;-0.708;2023-03-14T23:35:51;100952.27;;;7.39;56.91
55517;BME280;41724;51.176;-0.708;2023-03-14T23:38:18;100957.50;;;7.28;56.12
55517;BME280;41724;51.176;-0.708;2023-03-14T23:40:45;100957.52;;;7.02;55.85
55517;BME280;41724;51.176;-0.708;2023-03-14T23:43:12;100961.29;;;7.17;55.98
55517;BME280;41724;51.176;-0.708;2023-03-14T23:45:39;100961.99;;;6.66;57.03
55517;BME280;41724;51.176;-0.708;2023-03-14T23:48:07;100962.68;;;6.35;58.07
55517;BME280;41724;51.176;-0.708;2023-03-14T23:50:35;100966.18;;;6.18;59.06
55517;BME280;41724;51.176;-0.708;2023-03-14T23:53:01;100970.68;;;6.64;58.18
55517;BME280;41724;51.176;-0.708;2023-03-14T23:55:29;100973.18;;;6.56;57.75
55517;BME280;41724;51.176;-0.708;2023-03-14T23:57:56;100978.77;;;6.87;57.44
